createdAt,value
2023-10-29T00:00:26.797Z,2.85
2023-10-29T00:02:55.544Z,3.25
2023-10-29T00:05:24.125Z,3.10
2023-10-29T00:07:54.058Z,3.20
2023-10-29T00:10:23.273Z,2.78
2023-10-29T00:12:51.640Z,3.13
2023-10-29T00:15:20.385Z,2.90
2023-10-29T00:17:50.289Z,2.85
2023-10-29T00:20:18.767Z,2.72
2023-10-29T00:22:47.295Z,3.00
2023-10-29T00:25:17.233Z,3.00
2023-10-29T00:27:47.273Z,2.70
2023-10-29T00:30:16.013Z,2.88
2023-10-29T00:32:44.859Z,2.80
2023-10-29T00:35:13.269Z,2.67
2023-10-29T00:37:41.796Z,2.83
2023-10-29T00:40:11.183Z,2.88
2023-10-29T00:42:41.144Z,2.53
2023-10-29T00:45:10.807Z,2.50
2023-10-29T00:47:39.614Z,2.80
2023-10-29T00:50:09.236Z,2.70
2023-10-29T00:52:37.623Z,2.70
2023-10-29T00:55:06.642Z,2.90
2023-10-29T00:57:35.455Z,2.78
2023-10-29T01:00:07.752Z,2.70
2023-10-29T01:02:37.399Z,2.90
2023-10-29T01:05:06.827Z,2.80
2023-10-29T01:07:35.437Z,3.10
2023-10-29T01:10:03.869Z,2.70
2023-10-29T01:12:33.492Z,2.50
2023-10-29T01:15:02.980Z,2.90
2023-10-29T01:17:35.728Z,2.92
2023-10-29T01:20:05.339Z,2.95
2023-10-29T01:22:34.977Z,2.93
2023-10-29T01:25:08.412Z,3.00
2023-10-29T01:27:37.244Z,2.88
2023-10-29T01:30:07.270Z,2.90
2023-10-29T01:32:37.478Z,3.10
2023-10-29T01:35:06.317Z,2.90
2023-10-29T01:37:35.730Z,2.90
2023-10-29T01:40:04.918Z,2.85
2023-10-29T01:42:33.684Z,2.83
2023-10-29T01:45:02.337Z,3.17
2023-10-29T01:47:33.885Z,2.88
2023-10-29T01:50:04.109Z,3.15
2023-10-29T01:52:32.878Z,3.13
2023-10-29T01:55:01.230Z,2.90
2023-10-29T01:57:30.530Z,2.95
2023-10-29T02:00:00.754Z,2.80
2023-10-29T02:02:30.920Z,2.78
2023-10-29T02:04:59.280Z,2.63
2023-10-29T02:07:28.995Z,2.90
2023-10-29T02:09:57.350Z,2.63
2023-10-29T02:12:26.199Z,2.85
2023-10-29T02:14:56.302Z,2.58
2023-10-29T02:17:26.620Z,2.63
2023-10-29T02:22:26.722Z,2.60
2023-10-29T02:24:55.048Z,3.13
2023-10-29T02:27:24.213Z,2.72
2023-10-29T02:29:53.066Z,2.80
2023-10-29T02:32:21.398Z,2.90
2023-10-29T02:34:50.005Z,3.10
2023-10-29T02:37:18.521Z,2.65
2023-10-29T02:39:49.665Z,2.60
2023-10-29T02:42:18.596Z,2.90
2023-10-29T02:44:47.447Z,2.65
2023-10-29T02:47:15.970Z,2.67
2023-10-29T02:49:44.735Z,2.60
2023-10-29T02:52:13.070Z,2.60
2023-10-29T02:54:41.775Z,2.80
2023-10-29T02:57:11.894Z,2.67
2023-10-29T02:59:40.671Z,2.60
2023-10-29T03:02:09.315Z,2.47
2023-10-29T03:04:37.613Z,2.60
2023-10-29T03:07:06.130Z,2.63
2023-10-29T03:09:34.662Z,2.35
2023-10-29T03:12:03.123Z,2.50
2023-10-29T03:14:32.801Z,2.50
2023-10-29T03:17:01.550Z,2.70
2023-10-29T03:19:30.427Z,2.60
2023-10-29T03:21:59.387Z,2.70
2023-10-29T03:24:27.760Z,2.35
2023-10-29T03:26:56.341Z,2.72
2023-10-29T03:29:25.114Z,2.50
2023-10-29T03:31:55.466Z,2.58
2023-10-29T03:34:24.094Z,2.63
2023-10-29T03:36:53.422Z,2.90
2023-10-29T03:39:22.048Z,2.60
2023-10-29T03:41:50.669Z,2.80
2023-10-29T03:44:19.025Z,2.70
2023-10-29T03:46:52.562Z,2.67
2023-10-29T03:49:22.291Z,2.78
2023-10-29T03:51:50.955Z,2.80
2023-10-29T03:54:21.406Z,2.97
2023-10-29T03:56:49.845Z,2.78
2023-10-29T03:59:18.397Z,2.63
2023-10-29T04:01:46.997Z,2.55
2023-10-29T04:04:16.470Z,2.90
2023-10-29T04:06:46.684Z,2.63
2023-10-29T04:09:15.134Z,2.60
2023-10-29T04:11:46.357Z,3.15
2023-10-29T04:14:15.321Z,2.83
2023-10-29T04:16:43.836Z,2.70
2023-10-29T04:19:12.180Z,2.60
2023-10-29T04:21:40.977Z,2.80
2023-10-29T04:24:12.310Z,2.70
2023-10-29T04:26:40.977Z,2.70
2023-10-29T04:29:09.357Z,2.70
2023-10-29T04:31:37.985Z,2.67
2023-10-29T04:34:06.684Z,2.97
2023-10-29T04:36:35.126Z,2.72
2023-10-29T04:39:04.083Z,3.00
2023-10-29T04:41:34.113Z,2.70
2023-10-29T04:44:04.329Z,2.88
2023-10-29T04:46:32.717Z,3.40
2023-10-29T04:49:01.282Z,3.20
2023-10-29T04:51:31.072Z,3.17
2023-10-29T04:54:01.040Z,3.00
2023-10-29T04:56:30.017Z,3.08
2023-10-29T04:58:59.825Z,3.00
2023-10-29T05:01:28.735Z,3.40
2023-10-29T05:03:57.291Z,3.03
2023-10-29T05:06:25.851Z,3.00
2023-10-29T05:08:55.283Z,3.00
2023-10-29T05:11:23.785Z,3.10
2023-10-29T05:13:52.195Z,2.92
2023-10-29T05:16:22.360Z,2.80
2023-10-29T05:18:50.938Z,2.55
2023-10-29T05:21:20.544Z,2.75
2023-10-29T05:23:49.567Z,2.78
2023-10-29T05:26:19.499Z,2.78
2023-10-29T05:28:48.897Z,2.78
2023-10-29T05:31:17.578Z,2.78
2023-10-29T05:33:47.533Z,2.53
2023-10-29T05:36:15.926Z,2.53
2023-10-29T05:38:44.831Z,2.55
2023-10-29T05:41:13.387Z,3.20
2023-10-29T05:43:41.939Z,2.78
2023-10-29T05:46:13.564Z,2.70
2023-10-29T05:48:42.807Z,2.65
2023-10-29T05:51:14.421Z,2.70
2023-10-29T05:53:42.884Z,2.63
2023-10-29T05:56:11.226Z,3.47
2023-10-29T05:58:39.937Z,3.22
2023-10-29T06:01:08.835Z,3.20
2023-10-29T06:03:37.630Z,2.90
2023-10-29T06:06:06.988Z,2.80
2023-10-29T06:08:36.714Z,2.60
2023-10-29T06:11:06.500Z,3.00
2023-10-29T06:13:34.984Z,3.65
2023-10-29T06:16:09.228Z,3.88
2023-10-29T06:18:37.968Z,3.47
2023-10-29T06:21:06.439Z,2.90
2023-10-29T06:23:38.024Z,3.30
2023-10-29T06:26:09.497Z,4.20
2023-10-29T06:28:38.321Z,5.38
2023-10-29T06:31:06.753Z,4.57
2023-10-29T06:33:38.274Z,6.47
2023-10-29T06:36:07.157Z,4.25
2023-10-29T06:38:37.374Z,3.22
2023-10-29T06:41:05.830Z,2.80
2023-10-29T06:43:36.055Z,3.10
2023-10-29T06:46:05.249Z,2.80
2023-10-29T06:48:33.936Z,2.90
2023-10-29T06:51:02.288Z,2.90
2023-10-29T06:53:30.758Z,3.75
2023-10-29T06:56:04.239Z,4.35
2023-10-29T06:58:33.421Z,6.53
2023-10-29T07:01:06.041Z,4.10
2023-10-29T07:03:35.087Z,3.40
2023-10-29T07:06:08.442Z,3.42
2023-10-29T07:08:38.396Z,3.10
2023-10-29T07:11:08.554Z,3.15
2023-10-29T07:13:37.599Z,3.00
2023-10-29T07:16:06.589Z,3.50
2023-10-29T07:18:36.832Z,3.58
2023-10-29T07:21:06.736Z,3.17
2023-10-29T07:23:35.203Z,3.50
2023-10-29T07:26:04.055Z,3.08
2023-10-29T07:28:35.973Z,3.08
2023-10-29T07:31:05.392Z,3.10
2023-10-29T07:33:33.797Z,2.88
2023-10-29T07:36:04.974Z,2.60
2023-10-29T07:38:33.514Z,3.40
2023-10-29T07:41:01.868Z,3.80
2023-10-29T07:43:30.284Z,3.17
2023-10-29T07:46:04.913Z,3.20
2023-10-29T07:48:33.276Z,3.03
2023-10-29T07:51:02.124Z,3.10
2023-10-29T07:53:31.874Z,2.92
2023-10-29T07:56:09.223Z,2.70
2023-10-29T07:58:37.895Z,2.90
2023-10-29T08:01:14.065Z,2.63
2023-10-29T08:03:43.149Z,2.88
2023-10-29T08:06:12.494Z,2.85
2023-10-29T08:08:41.925Z,3.08
2023-10-29T08:11:19.347Z,3.35
2023-10-29T08:13:48.838Z,9.57
2023-10-29T08:16:19.813Z,8.20
2023-10-29T08:18:48.637Z,4.90
2023-10-29T08:21:18.526Z,3.63
2023-10-29T08:23:47.085Z,3.80
2023-10-29T08:26:16.068Z,3.30
2023-10-29T08:28:44.784Z,3.30
2023-10-29T08:31:13.592Z,2.90
2023-10-29T08:33:43.501Z,3.08
2023-10-29T08:36:12.115Z,2.80
2023-10-29T08:38:40.433Z,3.17
2023-10-29T08:41:15.061Z,3.20
2023-10-29T08:43:43.902Z,3.03
2023-10-29T08:46:12.773Z,3.15
2023-10-29T08:48:43.026Z,2.97
2023-10-29T08:51:13.119Z,3.58
2023-10-29T08:56:10.673Z,3.30
2023-10-29T08:58:39.134Z,3.28
2023-10-29T09:01:12.838Z,3.92
2023-10-29T09:03:42.993Z,3.05
2023-10-29T09:06:14.009Z,3.20
2023-10-29T09:08:42.732Z,3.20
2023-10-29T09:11:15.491Z,3.08
2023-10-29T09:13:44.270Z,3.20
2023-10-29T09:16:12.741Z,3.38
2023-10-29T09:18:43.073Z,3.92
2023-10-29T09:21:12.570Z,3.20
2023-10-29T09:23:40.986Z,4.28
2023-10-29T09:26:10.328Z,4.13
2023-10-29T09:28:39.542Z,3.40
2023-10-29T09:31:09.636Z,3.40
2023-10-29T09:33:39.697Z,3.63
2023-10-29T09:36:10.006Z,3.60
2023-10-29T09:38:38.476Z,5.93
2023-10-29T09:41:08.137Z,3.60
2023-10-29T09:43:41.091Z,3.40
2023-10-29T09:46:11.634Z,3.33
2023-10-29T09:48:40.970Z,3.00
2023-10-29T09:51:10.783Z,3.15
2023-10-29T09:53:40.693Z,3.30
2023-10-29T09:56:10.809Z,3.50
2023-10-29T09:58:39.909Z,3.55
2023-10-29T10:01:09.570Z,3.75
2023-10-29T10:03:39.361Z,3.72
2023-10-29T10:06:10.051Z,4.70
2023-10-29T10:08:38.759Z,5.10
2023-10-29T10:11:20.837Z,16.83
2023-10-29T10:13:49.445Z,7.32
2023-10-29T10:16:21.040Z,3.75
2023-10-29T10:18:54.812Z,4.13
2023-10-29T10:21:26.111Z,6.25
2023-10-29T10:23:56.570Z,3.08
2023-10-29T10:26:35.520Z,7.43
2023-10-29T10:29:06.258Z,5.22
2023-10-29T10:31:36.774Z,3.05
2023-10-29T10:36:43.104Z,2.88
2023-10-29T10:39:12.964Z,2.95
2023-10-29T10:41:43.699Z,3.00
2023-10-29T10:44:13.981Z,3.92
2023-10-29T10:46:48.979Z,3.50
2023-10-29T10:49:18.546Z,3.40
2023-10-29T10:51:49.912Z,3.65
2023-10-29T10:54:19.865Z,2.70
2023-10-29T10:56:49.108Z,2.95
2023-10-29T10:59:17.690Z,2.65
2023-10-29T11:01:46.883Z,2.90
2023-10-29T11:04:16.151Z,3.05
2023-10-29T11:06:45.861Z,2.92
2023-10-29T11:09:18.530Z,3.97
2023-10-29T11:11:51.464Z,3.50
2023-10-29T11:14:20.940Z,4.32
2023-10-29T11:16:51.465Z,3.20
2023-10-29T11:19:41.031Z,2.50
2023-10-29T11:22:20.333Z,2.88
2023-10-29T11:25:31.712Z,3.30
2023-10-29T11:28:00.809Z,3.17
2023-10-29T11:30:29.762Z,3.60
2023-10-29T11:33:19.509Z,4.18
2023-10-29T11:35:48.635Z,5.13
2023-10-29T11:38:31.821Z,5.30
2023-10-29T11:41:22.238Z,5.45
2023-10-29T11:44:23.994Z,4.85
2023-10-29T11:47:08.789Z,4.00
2023-10-29T11:50:12.450Z,7.90
2023-10-29T11:52:47.151Z,13.95
2023-10-29T11:55:19.463Z,16.63
2023-10-29T11:57:52.178Z,10.80
2023-10-29T12:00:21.895Z,8.52
2023-10-29T12:02:50.767Z,7.97
2023-10-29T12:05:19.183Z,5.75
2023-10-29T12:07:47.821Z,5.65
2023-10-29T12:10:16.489Z,5.60
2023-10-29T12:12:55.218Z,4.57
2023-10-29T12:15:25.564Z,4.10
2023-10-29T12:17:54.729Z,4.43
2023-10-29T12:20:24.725Z,4.65
2023-10-29T12:22:59.423Z,3.70
2023-10-29T12:25:28.814Z,3.72
2023-10-29T12:28:00.628Z,3.63
2023-10-29T12:30:37.225Z,4.10
2023-10-29T12:33:24.127Z,3.33
2023-10-29T12:35:53.929Z,3.45
2023-10-29T12:38:24.770Z,3.53
2023-10-29T12:41:12.683Z,3.50
2023-10-29T12:43:45.334Z,3.75
2023-10-29T12:46:15.625Z,3.90
2023-10-29T12:49:01.610Z,3.90
2023-10-29T12:51:32.215Z,3.90
2023-10-29T12:54:12.556Z,3.90
2023-10-29T12:56:52.480Z,4.00
2023-10-29T12:59:22.677Z,3.70
2023-10-29T13:01:55.474Z,3.80
2023-10-29T13:04:25.246Z,3.72
2023-10-29T13:06:55.162Z,3.55
2023-10-29T13:09:24.127Z,3.80
2023-10-29T13:11:53.695Z,3.53
2023-10-29T13:14:24.559Z,3.60
2023-10-29T13:16:54.504Z,3.22
2023-10-29T13:21:53.797Z,3.40
2023-10-29T13:26:52.421Z,13.45
2023-10-29T13:29:21.775Z,19.70
2023-10-29T13:31:51.445Z,16.20
2023-10-29T13:34:20.217Z,4.65
2023-10-29T13:36:49.250Z,4.05
2023-10-29T13:39:20.242Z,4.32
2023-10-29T13:41:49.956Z,4.55
2023-10-29T13:44:19.015Z,3.85
2023-10-29T13:46:48.339Z,7.47
2023-10-29T13:49:18.196Z,3.42
2023-10-29T13:51:47.961Z,3.78
2023-10-29T13:54:16.762Z,3.55
2023-10-29T13:56:45.338Z,3.40
2023-10-29T13:59:15.432Z,3.38
2023-10-29T14:01:44.128Z,3.20
2023-10-29T14:04:12.656Z,3.33
2023-10-29T14:06:42.956Z,3.28
2023-10-29T14:09:11.473Z,3.35
2023-10-29T14:11:39.886Z,3.33
2023-10-29T14:14:08.947Z,3.53
2023-10-29T14:16:38.655Z,3.38
2023-10-29T14:19:08.245Z,3.25
2023-10-29T14:21:37.416Z,3.40
2023-10-29T14:24:09.149Z,3.10
2023-10-29T14:26:38.426Z,2.97
2023-10-29T14:29:07.152Z,2.95
2023-10-29T14:31:36.911Z,3.00
2023-10-29T14:34:06.158Z,3.20
2023-10-29T14:36:34.587Z,3.17
2023-10-29T14:39:04.555Z,3.10
2023-10-29T14:41:34.626Z,3.10
2023-10-29T14:44:04.151Z,12.98
2023-10-29T14:46:33.009Z,12.88
2023-10-29T14:49:01.751Z,9.70
2023-10-29T14:51:30.413Z,3.90
2023-10-29T14:54:00.522Z,3.53
2023-10-29T14:56:29.011Z,3.53
2023-10-29T14:58:59.308Z,3.65
2023-10-29T15:01:28.550Z,3.42
2023-10-29T15:04:00.581Z,3.97
2023-10-29T15:06:42.592Z,3.60
2023-10-29T15:09:12.120Z,3.17
2023-10-29T15:11:40.610Z,3.65
2023-10-29T15:14:14.751Z,4.75
2023-10-29T15:16:44.046Z,6.95
2023-10-29T15:19:22.129Z,5.30
2023-10-29T15:21:58.769Z,6.72
2023-10-29T15:24:27.445Z,10.35
2023-10-29T15:26:56.044Z,5.28
2023-10-29T15:29:27.200Z,4.45
2023-10-29T15:31:56.406Z,3.90
2023-10-29T15:34:25.162Z,3.42
2023-10-29T15:36:54.652Z,3.40
2023-10-29T15:39:23.824Z,5.25
2023-10-29T15:41:53.389Z,5.18
2023-10-29T15:44:22.090Z,4.85
2023-10-29T15:46:52.091Z,3.85
2023-10-29T15:49:24.443Z,3.43
2023-10-29T15:51:53.473Z,3.38
2023-10-29T15:54:21.970Z,3.08
2023-10-29T15:56:52.028Z,3.47
2023-10-29T15:59:21.502Z,3.47
2023-10-29T16:01:51.686Z,3.45
2023-10-29T16:04:21.317Z,4.20
2023-10-29T16:06:50.323Z,5.70
2023-10-29T16:09:19.231Z,4.68
2023-10-29T16:11:48.964Z,3.60
2023-10-29T16:14:17.451Z,3.38
2023-10-29T16:16:45.853Z,3.03
2023-10-29T16:19:15.629Z,3.47
2023-10-29T16:21:45.606Z,3.70
2023-10-29T16:24:14.895Z,4.47
2023-10-29T16:26:43.589Z,5.90
2023-10-29T16:29:13.878Z,5.45
2023-10-29T16:34:10.712Z,4.35
2023-10-29T16:36:40.857Z,3.58
2023-10-29T16:39:09.265Z,3.15
2023-10-29T16:41:38.092Z,3.30
2023-10-29T16:44:06.947Z,3.60
2023-10-29T16:46:36.049Z,3.42
2023-10-29T16:49:05.697Z,3.90
2023-10-29T16:51:34.424Z,3.58
2023-10-29T16:54:05.220Z,3.58
2023-10-29T16:56:33.995Z,3.15
2023-10-29T16:59:03.009Z,3.50
2023-10-29T17:01:32.238Z,3.33
2023-10-29T17:04:01.245Z,3.50
2023-10-29T17:06:30.007Z,3.22
2023-10-29T17:08:59.769Z,3.60
2023-10-29T17:11:31.028Z,4.15
2023-10-29T17:13:59.765Z,5.65
2023-10-29T17:16:28.085Z,5.70
2023-10-29T17:18:56.924Z,7.75
2023-10-29T17:21:25.285Z,8.38
2023-10-29T17:23:53.896Z,8.93
2023-10-29T17:26:22.634Z,7.10
2023-10-29T17:28:52.933Z,5.60
2023-10-29T17:33:50.780Z,4.82
2023-10-29T17:36:20.250Z,4.55
2023-10-29T17:38:49.075Z,4.85
2023-10-29T17:41:18.799Z,5.35
2023-10-29T17:43:48.182Z,6.18
2023-10-29T17:46:20.842Z,4.60
2023-10-29T17:48:52.897Z,5.00
2023-10-29T17:51:21.577Z,5.78
2023-10-29T17:53:52.194Z,7.47
2023-10-29T17:56:20.983Z,6.97
2023-10-29T17:58:49.897Z,8.40
2023-10-29T18:01:21.258Z,6.13
2023-10-29T18:03:54.894Z,6.95
2023-10-29T18:06:26.308Z,6.30
2023-10-29T18:08:57.231Z,7.50
2023-10-29T18:11:27.566Z,6.70
2023-10-29T18:13:56.623Z,7.10
2023-10-29T18:16:27.107Z,9.85
2023-10-29T18:18:55.442Z,9.10
2023-10-29T18:21:23.764Z,10.05
2023-10-29T18:23:52.631Z,11.77
2023-10-29T18:26:22.124Z,19.25
2023-10-29T18:28:50.692Z,13.90
2023-10-29T18:31:19.518Z,9.32
2023-10-29T18:33:49.534Z,7.60
2023-10-29T18:36:26.657Z,6.47
2023-10-29T18:38:57.764Z,6.53
2023-10-29T18:41:27.199Z,6.30
2023-10-29T18:43:58.555Z,6.28
2023-10-29T18:46:27.599Z,6.53
2023-10-29T18:48:57.691Z,6.43
2023-10-29T18:51:26.237Z,6.72
2023-10-29T18:53:54.953Z,6.30
2023-10-29T18:56:24.068Z,6.05
2023-10-29T18:58:53.306Z,6.20
2023-10-29T19:01:22.310Z,6.22
2023-10-29T19:03:50.996Z,6.28
2023-10-29T19:06:21.076Z,6.03
2023-10-29T19:08:50.975Z,7.70
2023-10-29T19:11:19.625Z,6.60
2023-10-29T19:13:48.085Z,7.82
2023-10-29T19:16:16.955Z,7.03
2023-10-29T19:18:45.571Z,7.95
2023-10-29T19:21:14.815Z,8.95
2023-10-29T19:23:44.722Z,7.20
2023-10-29T19:26:14.388Z,6.43
2023-10-29T19:28:43.163Z,6.78
2023-10-29T19:31:23.923Z,6.70
2023-10-29T19:33:57.451Z,7.00
2023-10-29T19:36:26.062Z,7.18
2023-10-29T19:38:59.172Z,7.00
2023-10-29T19:41:27.532Z,7.60
2023-10-29T19:43:55.929Z,9.77
2023-10-29T19:46:24.490Z,11.77
2023-10-29T19:48:54.600Z,11.45
2023-10-29T19:51:24.381Z,11.23
2023-10-29T19:53:53.005Z,11.13
2023-10-29T19:56:23.837Z,12.77
2023-10-29T20:01:21.378Z,9.23
2023-10-29T20:03:50.484Z,6.45
2023-10-29T20:06:19.366Z,5.30
2023-10-29T20:08:48.665Z,5.10
2023-10-29T20:11:17.030Z,5.97
2023-10-29T20:13:50.330Z,5.20
2023-10-29T20:16:18.752Z,4.68
2023-10-29T20:18:48.547Z,5.20
2023-10-29T20:21:20.284Z,4.70
2023-10-29T20:24:27.876Z,4.20
2023-10-29T20:27:03.765Z,3.88
2023-10-29T20:29:33.609Z,4.30
2023-10-29T20:32:04.091Z,4.10
2023-10-29T20:34:33.020Z,4.32
2023-10-29T20:37:01.562Z,4.28
2023-10-29T20:39:30.062Z,3.88
2023-10-29T20:42:02.108Z,3.78
2023-10-29T20:44:32.088Z,4.10
2023-10-29T20:47:02.399Z,4.20
2023-10-29T20:51:59.713Z,5.60
2023-10-29T20:54:28.210Z,6.25
2023-10-29T20:56:56.777Z,4.07
2023-10-29T20:59:26.245Z,4.57
2023-10-29T21:01:54.695Z,5.45
2023-10-29T21:04:24.771Z,5.82
2023-10-29T21:06:53.532Z,5.50
2023-10-29T21:09:21.898Z,5.72
2023-10-29T21:11:53.040Z,4.68
2023-10-29T21:14:21.642Z,4.68
2023-10-29T21:16:50.222Z,4.50
2023-10-29T21:19:22.073Z,4.18
2023-10-29T21:21:56.685Z,4.40
2023-10-29T21:24:25.776Z,4.68
2023-10-29T21:26:56.247Z,4.68
2023-10-29T21:29:24.909Z,4.70
2023-10-29T21:31:53.825Z,4.97
2023-10-29T21:34:22.310Z,4.80
2023-10-29T21:36:50.720Z,5.85
2023-10-29T21:39:20.488Z,5.18
2023-10-29T21:41:49.429Z,5.72
2023-10-29T21:44:17.971Z,6.00
2023-10-29T21:46:48.069Z,5.38
2023-10-29T21:49:16.485Z,5.47
2023-10-29T21:51:44.881Z,5.10
2023-10-29T21:54:13.707Z,5.30
2023-10-29T21:56:43.441Z,5.47
2023-10-29T21:59:11.929Z,5.15
2023-10-29T22:01:40.424Z,5.85
2023-10-29T22:04:09.192Z,5.25
2023-10-29T22:06:37.749Z,5.45
2023-10-29T22:09:06.476Z,9.98
2023-10-29T22:11:35.239Z,22.65
2023-10-29T22:14:05.272Z,9.60
2023-10-29T22:16:33.653Z,6.60
2023-10-29T22:19:02.099Z,6.10
2023-10-29T22:21:30.459Z,6.00
2023-10-29T22:23:59.404Z,5.82
2023-10-29T22:26:27.893Z,5.78
2023-10-29T22:28:56.828Z,5.88
2023-10-29T22:31:26.529Z,6.40
2023-10-29T22:33:54.982Z,6.40
2023-10-29T22:36:23.386Z,6.13
2023-10-29T22:38:52.053Z,5.93
2023-10-29T22:41:20.900Z,6.47
2023-10-29T22:43:49.819Z,5.72
2023-10-29T22:46:19.541Z,5.80
2023-10-29T22:48:51.125Z,6.03
2023-10-29T22:51:20.498Z,6.07
2023-10-29T22:53:49.208Z,7.07
2023-10-29T22:56:17.799Z,6.70
2023-10-29T22:58:46.225Z,6.22
2023-10-29T23:01:15.031Z,6.35
2023-10-29T23:03:43.815Z,6.00
2023-10-29T23:06:14.220Z,5.97
2023-10-29T23:08:42.653Z,6.28
2023-10-29T23:11:16.420Z,6.68
2023-10-29T23:13:45.568Z,6.15
2023-10-29T23:16:14.924Z,6.55
2023-10-29T23:18:44.334Z,6.82
2023-10-29T23:21:14.196Z,6.78
2023-10-29T23:23:42.892Z,7.13
2023-10-29T23:26:11.653Z,6.68
2023-10-29T23:28:40.041Z,6.95
2023-10-29T23:31:09.843Z,6.78
2023-10-29T23:33:39.532Z,6.78
2023-10-29T23:36:08.999Z,7.03
2023-10-29T23:38:38.890Z,6.68
2023-10-29T23:41:07.546Z,6.82
2023-10-29T23:43:36.036Z,6.07
2023-10-29T23:46:05.086Z,6.28
2023-10-29T23:48:34.340Z,6.45
2023-10-29T23:51:03.273Z,6.80
2023-10-29T23:53:31.886Z,6.18
2023-10-29T23:56:01.548Z,6.53
2023-10-29T23:58:30.064Z,6.13
